Time;durP1;ratioP1;P1;durP2;ratioP2;P2;SDS_P1;SDS_P2;PMS_P1;PMS_P2;Temp;Humidity;BMP_temperature;BMP_pressure;BME280_temperature;BME280_humidity;BME280_pressure;Samples;Min_cycle;Max_cycle;Signal;HPM_P1;HPM_P2
2024/02/29 00:01:58;;;;;;;5.15;1.40;;;;;;;5.25;100.00;99853.06;5055970;28;20051;-76
2024/02/29 00:04:31;;;;;;;0.80;0.80;;;;;;;5.28;100.00;99844.72;5072435;28;20024;-76
2024/02/29 00:06:57;;;;;;;9.38;1.60;;;;;;;5.27;100.00;99836.91;5040350;28;20040;-76
2024/02/29 00:09:23;;;;;;;0.75;0.75;;;;;;;5.18;100.00;99840.56;5055486;28;20043;-76
2024/02/29 00:11:51;;;;;;;6.72;1.52;;;;;;;5.12;100.00;99831.38;5039252;28;20040;-76
2024/02/29 00:14:18;;;;;;;11.85;3.13;;;;;;;5.08;100.00;99843.38;5073771;28;20455;-76
2024/02/29 00:16:44;;;;;;;2.83;1.52;;;;;;;4.99;100.00;99833.69;5039481;28;20139;-76
2024/02/29 00:19:13;;;;;;;0.82;0.70;;;;;;;4.93;100.00;99839.66;5072429;28;20056;-76
2024/02/29 00:21:40;;;;;;;1.27;1.15;;;;;;;4.88;100.00;99845.47;5039268;28;20033;-76
2024/02/29 00:24:06;;;;;;;1.98;0.70;;;;;;;4.89;100.00;99851.63;5039131;28;20039;-76
2024/02/29 00:26:31;;;;;;;1.17;1.13;;;;;;;4.90;100.00;99842.66;5039466;28;20111;-75
2024/02/29 00:28:57;;;;;;;1.08;0.98;;;;;;;4.93;100.00;99850.31;5073668;28;20346;-76
2024/02/29 00:31:24;;;;;;;7.90;1.58;;;;;;;5.01;100.00;99850.34;5054997;28;20025;-76
2024/02/29 00:33:50;;;;;;;3.22;1.75;;;;;;;4.97;100.00;99849.81;5072064;28;20040;-76
2024/02/29 00:36:16;;;;;;;4.78;1.40;;;;;;;4.88;100.00;99845.47;5039634;28;20119;-76
2024/02/29 00:38:42;;;;;;;0.70;0.70;;;;;;;4.88;100.00;99849.97;5042610;28;20103;-76
2024/02/29 00:41:08;;;;;;;2.85;1.25;;;;;;;4.87;100.00;99849.16;5042863;28;20035;-76
2024/02/29 00:43:33;;;;;;;9.25;0.95;;;;;;;4.87;100.00;99851.81;5042785;28;20033;-76
2024/02/29 00:46:00;;;;;;;0.55;0.55;;;;;;;4.88;100.00;99848.13;5042798;28;20047;-76
2024/02/29 00:48:25;;;;;;;0.55;0.55;;;;;;;4.78;100.00;99853.59;5042704;28;20031;-76
2024/02/29 00:50:51;;;;;;;0.60;0.60;;;;;;;4.75;100.00;99851.25;5075439;28;20021;-76
2024/02/29 00:53:17;;;;;;;1.63;1.15;;;;;;;4.78;100.00;99850.09;5042926;28;20503;-76
2024/02/29 00:55:43;;;;;;;0.80;0.73;;;;;;;4.58;100.00;99852.19;5059064;28;20524;-76
2024/02/29 00:58:09;;;;;;;0.57;0.57;;;;;;;4.47;100.00;99847.94;5059307;28;20060;-76
2024/02/29 01:00:35;;;;;;;0.98;0.80;;;;;;;4.36;100.00;99848.22;5042458;28;20048;-76
2024/02/29 01:03:01;;;;;;;5.05;1.10;;;;;;;4.39;100.00;99845.25;5075683;28;20031;-76
2024/02/29 01:05:26;;;;;;;0.90;0.90;;;;;;;4.36;100.00;99841.06;5042334;28;20039;-76
2024/02/29 01:07:52;;;;;;;2.67;0.70;;;;;;;4.46;100.00;99842.81;5042427;28;20030;-76
2024/02/29 01:10:18;;;;;;;0.90;0.90;;;;;;;4.37;100.00;99837.44;5042112;28;20082;-76
2024/02/29 01:12:43;;;;;;;5.30;0.80;;;;;;;4.52;100.00;99840.31;5058823;28;20089;-76
2024/02/29 01:15:10;;;;;;;3.75;1.48;;;;;;;4.68;100.00;99838.72;5058670;28;20123;-76
2024/02/29 01:17:36;;;;;;;0.82;0.70;;;;;;;4.89;100.00;99838.31;5025879;28;20536;-76
2024/02/29 01:20:03;;;;;;;5.95;2.67;;;;;;;5.10;100.00;99840.53;5074801;28;20020;-76
2024/02/29 01:22:30;;;;;;;6.97;1.98;;;;;;;5.14;100.00;99855.22;5042239;28;20038;-76
2024/02/29 01:24:56;;;;;;;1.10;0.90;;;;;;;5.14;100.00;99848.06;5042049;28;20020;-76
2024/02/29 01:27:22;;;;;;;5.30;1.25;;;;;;;5.14;100.00;99848.06;5041813;28;20034;-76
2024/02/29 01:29:48;;;;;;;2.08;1.50;;;;;;;5.25;100.00;99853.06;5075016;28;20078;-76
2024/02/29 01:32:14;;;;;;;0.82;0.82;;;;;;;5.21;100.00;99834.88;5041925;28;20024;-76
2024/02/29 01:34:40;;;;;;;1.13;1.02;;;;;;;5.03;100.00;99827.88;5025549;28;20029;-76
2024/02/29 01:37:06;;;;;;;6.10;1.90;;;;;;;4.84;100.00;99836.13;5058304;28;20211;-76
2024/02/29 01:39:33;;;;;;;2.72;1.20;;;;;;;4.54;100.00;99827.69;5074897;28;20039;-76
2024/02/29 01:41:59;;;;;;;2.40;0.90;;;;;;;4.20;100.00;99827.69;5058458;28;20060;-76
2024/02/29 01:44:26;;;;;;;2.53;0.73;;;;;;;4.04;100.00;99830.25;5058274;28;20422;-76
2024/02/29 01:46:53;;;;;;;5.85;1.17;;;;;;;3.90;100.00;99819.19;5058414;28;20060;-76
2024/02/29 01:49:19;;;;;;;5.28;1.25;;;;;;;3.79;100.00;99821.28;5040352;28;20086;-76
2024/02/29 01:51:45;;;;;;;6.13;1.60;;;;;;;3.63;100.00;99814.84;5041560;28;20032;-76
2024/02/29 01:54:11;;;;;;;4.90;1.52;;;;;;;3.55;100.00;99809.47;5041454;28;20034;-76
2024/02/29 01:56:37;;;;;;;4.15;1.33;;;;;;;3.50;100.00;99817.88;5074742;28;20067;-76
2024/02/29 01:59:03;;;;;;;3.05;1.63;;;;;;;3.48;100.00;99814.53;5041495;28;20059;-76
2024/02/29 02:01:29;;;;;;;3.03;1.15;;;;;;;3.41;100.00;99810.00;5058116;28;20025;-76
2024/02/29 02:03:54;;;;;;;2.50;0.95;;;;;;;3.36;100.00;99806.94;5041301;28;20030;-76
2024/02/29 02:06:20;;;;;;;3.90;1.08;;;;;;;3.33;100.00;99802.78;5057880;28;20060;-76
2024/02/29 02:08:46;;;;;;;2.35;0.68;;;;;;;3.33;100.00;99805.44;5040985;28;20029;-76
2024/02/29 02:11:12;;;;;;;0.57;0.57;;;;;;;3.33;100.00;99805.44;5057266;28;20016;-76
2024/02/29 02:13:38;;;;;;;5.47;1.73;;;;;;;3.45;100.00;99798.09;5040854;28;20024;-76
2024/02/29 02:16:05;;;;;;;5.03;1.13;;;;;;;3.50;100.00;99796.63;5073970;28;20036;-76
2024/02/29 02:18:32;;;;;;;1.27;0.93;;;;;;;3.47;100.00;99794.28;5073946;28;20508;-76
2024/02/29 02:20:57;;;;;;;0.52;0.52;;;;;;;3.51;100.00;99795.63;5041097;28;20071;-76
2024/02/29 02:23:23;;;;;;;2.55;0.95;;;;;;;3.56;100.00;99789.84;5040686;28;20028;-76
2024/02/29 02:25:49;;;;;;;1.80;1.70;;;;;;;3.58;100.00;99779.09;5057429;28;20024;-76
2024/02/29 02:28:15;;;;;;;0.50;0.50;;;;;;;3.61;100.00;99779.59;5073982;28;20024;-76
2024/02/29 02:30:40;;;;;;;5.75;0.90;;;;;;;3.65;100.00;99769.47;5057211;28;20344;-76
2024/02/29 02:33:06;;;;;;;4.20;1.85;;;;;;;3.63;100.00;99767.00;5041075;28;20662;-76
2024/02/29 02:35:33;;;;;;;0.80;0.80;;;;;;;3.59;100.00;99773.59;5040728;28;20109;-76
2024/02/29 02:38:03;;;;;;;5.47;2.67;;;;;;;3.58;100.00;99773.78;5057628;28;20036;-76
2024/02/29 02:40:29;;;;;;;5.13;0.90;;;;;;;3.58;100.00;99779.09;5057117;28;20111;-76
2024/02/29 02:42:55;;;;;;;1.63;0.68;;;;;;;3.47;100.00;99777.50;5073711;28;20020;-76
2024/02/29 02:45:21;;;;;;;1.20;0.82;;;;;;;3.45;100.00;99768.84;5057023;28;20108;-76
2024/02/29 02:47:47;;;;;;;0.50;0.50;;;;;;;3.44;100.00;99780.44;5040527;28;20123;-76
2024/02/29 02:50:13;;;;;;;2.90;1.05;;;;;;;3.42;100.00;99777.97;5073195;28;20024;-76
2024/02/29 02:52:39;;;;;;;0.85;0.80;;;;;;;3.42;100.00;99777.13;5073467;28;20052;-76
2024/02/29 02:55:06;;;;;;;11.13;1.40;;;;;;;3.44;100.00;99775.13;5073703;28;20366;-76
2024/02/29 02:57:32;;;;;;;8.88;1.48;;;;;;;3.42;100.00;99767.34;5056396;28;20020;-76
2024/02/29 02:59:57;;;;;;;1.77;0.82;;;;;;;3.48;100.00;99764.03;5039958;28;20032;-76
2024/02/29 03:02:23;;;;;;;6.15;1.45;;;;;;;3.45;100.00;99769.69;5040280;28;20035;-76
2024/02/29 03:04:49;;;;;;;2.85;1.70;;;;;;;3.34;100.00;99763.78;5040186;28;20020;-76
2024/02/29 03:07:14;;;;;;;3.25;1.15;;;;;;;3.27;100.00;99756.41;5040119;28;20028;-76
2024/02/29 03:09:40;;;;;;;1.65;0.90;;;;;;;3.23;100.00;99762.19;5057156;28;20346;-76
2024/02/29 03:12:06;;;;;;;2.08;0.85;;;;;;;3.23;100.00;99762.19;5040077;28;20485;-76
2024/02/29 03:14:31;;;;;;;9.05;1.92;;;;;;;3.16;100.00;99756.66;5039948;28;20039;-76
2024/02/29 03:16:57;;;;;;;0.60;0.60;;;;;;;3.16;100.00;99756.66;5039749;28;20025;-76
2024/02/29 03:19:23;;;;;;;6.47;1.10;;;;;;;3.15;100.00;99748.81;5072681;28;20032;-76
2024/02/29 03:21:48;;;;;;;1.67;1.58;;;;;;;3.24;100.00;99747.91;5040005;28;20064;-76
2024/02/29 03:24:14;;;;;;;1.17;1.02;;;;;;;3.37;100.00;99737.72;5056149;28;20032;-76
2024/02/29 03:26:39;;;;;;;0.73;0.73;;;;;;;3.58;100.00;99752.50;5040372;28;20017;-76
2024/02/29 03:29:07;;;;;;;3.55;1.08;;;;;;;3.78;100.00;99737.16;5040073;28;20343;-76
2024/02/29 03:31:32;;;;;;;1.90;1.15;;;;;;;3.95;100.00;99742.44;5056648;28;20025;-76
2024/02/29 03:33:59;;;;;;;2.15;1.95;;;;;;;4.12;100.00;99753.16;5023346;28;20455;-76
2024/02/29 03:36:24;;;;;;;1.55;0.50;;;;;;;4.07;100.00;99750.13;5039734;28;20482;-76
2024/02/29 03:38:50;;;;;;;3.38;0.93;;;;;;;4.00;100.00;99741.97;5039569;28;20028;-76
2024/02/29 03:41:16;;;;;;;1.55;1.13;;;;;;;3.86;100.00;99746.00;5056213;28;20032;-76
2024/02/29 03:43:42;;;;;;;0.75;0.75;;;;;;;3.75;100.00;99740.97;5039591;28;20036;-76
2024/02/29 03:46:09;;;;;;;7.35;1.02;;;;;;;3.55;100.00;99739.50;5055896;28;20099;-76
2024/02/29 03:48:35;;;;;;;0.98;0.93;;;;;;;3.43;100.00;99737.09;5056114;28;20025;-76
2024/02/29 03:51:02;;;;;;;1.85;0.68;;;;;;;3.39;100.00;99734.94;5072778;28;20025;-76
2024/02/29 03:53:28;;;;;;;2.40;1.00;;;;;;;3.36;100.00;99728.09;5055989;28;20060;-76
2024/02/29 03:55:54;;;;;;;5.07;1.15;;;;;;;3.30;100.00;99731.34;5039354;28;20066;-76
2024/02/29 03:58:20;;;;;;;1.85;1.25;;;;;;;3.23;100.00;99722.34;5055799;28;20451;-76
2024/02/29 04:00:45;;;;;;;4.18;0.95;;;;;;;3.18;100.00;99724.63;5039443;28;20043;-76
2024/02/29 04:03:11;;;;;;;1.35;1.02;;;;;;;3.05;100.00;99725.03;5039342;28;20378;-76
2024/02/29 04:05:37;;;;;;;5.28;1.40;;;;;;;2.95;100.00;99718.94;5022805;28;20036;-76
2024/02/29 04:08:10;;;;;;;9.00;1.80;;;;;;;2.86;100.00;99720.69;5055693;28;20028;-76
2024/02/29 04:10:38;;;;;;;8.88;2.00;;;;;;;2.81;100.00;99717.66;5056756;28;20478;-76
2024/02/29 04:13:05;;;;;;;2.60;1.08;;;;;;;2.72;100.00;99708.78;5059498;28;20020;-76
2024/02/29 04:15:30;;;;;;;6.18;1.10;;;;;;;2.70;100.00;99716.06;5059925;28;20040;-75
2024/02/29 04:17:56;;;;;;;4.07;1.02;;;;;;;2.68;100.00;99715.38;5043320;28;20208;-76
2024/02/29 04:20:22;;;;;;;1.67;0.88;;;;;;;2.73;100.00;99704.31;5059647;28;20040;-76
2024/02/29 04:22:47;;;;;;;4.53;1.20;;;;;;;2.87;100.00;99711.75;5043208;28;20111;-76
2024/02/29 04:25:16;;;;;;;2.90;0.88;;;;;;;3.05;100.00;99704.59;5059815;28;20036;-76
2024/02/29 04:27:42;;;;;;;5.45;1.67;;;;;;;3.24;100.00;99710.72;5076477;28;20024;-76
2024/02/29 04:30:09;;;;;;;10.43;1.52;;;;;;;3.38;100.00;99717.28;5059456;28;20035;-76
2024/02/29 04:32:38;;;;;;;5.88;1.63;;;;;;;3.50;100.00;99726.69;5042960;28;20419;-76
2024/02/29 04:35:04;;;;;;;7.10;1.77;;;;;;;3.55;100.00;99743.00;5059687;28;20123;-76
2024/02/29 04:37:29;;;;;;;10.68;1.77;;;;;;;3.56;100.00;99735.88;5076928;28;20020;-76
2024/02/29 04:39:55;;;;;;;0.50;0.50;;;;;;;3.53;100.00;99721.91;5043011;28;20526;-76
2024/02/29 04:42:20;;;;;;;0.50;0.50;;;;;;;3.56;100.00;99718.09;5059451;28;20040;-76
2024/02/29 04:44:46;;;;;;;1.95;0.70;;;;;;;3.59;100.00;99717.78;5059250;28;20021;-76
2024/02/29 04:47:12;;;;;;;4.55;0.95;;;;;;;3.53;100.00;99721.06;5059186;28;20508;-76
2024/02/29 04:49:37;;;;;;;2.92;1.08;;;;;;;3.52;100.00;99714.94;5043452;28;20025;-76
2024/02/29 04:52:03;;;;;;;6.35;1.38;;;;;;;3.45;100.00;99710.38;5042614;28;20447;-76
2024/02/29 04:54:29;;;;;;;2.00;1.05;;;;;;;3.26;100.00;99711.41;5042310;28;20082;-76
2024/02/29 04:56:54;;;;;;;0.63;0.55;;;;;;;3.12;100.00;99704.81;5042586;28;20123;-76
2024/02/29 04:59:20;;;;;;;4.65;1.70;;;;;;;3.02;100.00;99712.06;5042619;28;20056;-76
2024/02/29 05:01:46;;;;;;;10.02;1.65;;;;;;;2.96;100.00;99708.16;5058568;28;20032;-76
2024/02/29 05:04:11;;;;;;;5.88;2.05;;;;;;;2.99;100.00;99718.50;5042291;28;20031;-76
2024/02/29 05:06:37;;;;;;;9.05;1.30;;;;;;;3.01;100.00;99711.19;5042125;28;20033;-76
2024/02/29 05:09:03;;;;;;;4.50;1.63;;;;;;;2.95;100.00;99705.66;5042335;28;20041;-76
2024/02/29 05:11:29;;;;;;;6.53;1.70;;;;;;;2.81;100.00;99710.53;5058637;28;20025;-76
2024/02/29 05:13:54;;;;;;;7.22;1.63;;;;;;;2.70;100.00;99708.09;5075648;28;20028;-76
2024/02/29 05:16:20;;;;;;;11.45;1.23;;;;;;;2.52;100.00;99697.47;5042211;28;20093;-76
2024/02/29 05:18:47;;;;;;;2.33;1.00;;;;;;;2.42;100.00;99689.56;5058912;28;20048;-76
2024/02/29 05:21:13;;;;;;;1.70;0.93;;;;;;;2.35;100.00;99699.09;5058276;28;20052;-76
2024/02/29 05:23:39;;;;;;;10.82;1.50;;;;;;;2.23;100.00;99691.50;5058611;28;20123;-76
2024/02/29 05:26:05;;;;;;;8.10;1.45;;;;;;;2.14;100.00;99691.44;5058785;28;20147;-76
2024/02/29 05:28:31;;;;;;;2.55;1.25;;;;;;;2.04;100.00;99685.34;5042027;28;20056;-76
2024/02/29 05:30:57;;;;;;;1.55;0.93;;;;;;;2.14;100.00;99680.81;5041822;28;20021;-76
2024/02/29 05:33:23;;;;;;;6.03;1.00;;;;;;;2.30;100.00;99674.00;5042160;28;20039;-76
2024/02/29 05:35:51;;;;;;;3.13;0.93;;;;;;;2.51;100.00;99685.16;5058427;28;20032;-76
2024/02/29 05:38:17;;;;;;;5.38;1.20;;;;;;;2.71;100.00;99693.84;5074975;28;20027;-76
2024/02/29 05:40:43;;;;;;;1.00;0.80;;;;;;;2.88;100.00;99684.19;5041800;28;20044;-75
2024/02/29 05:43:09;;;;;;;0.40;0.40;;;;;;;3.10;100.00;99698.84;5074547;28;20024;-76
2024/02/29 05:45:34;;;;;;;1.33;0.82;;;;;;;3.19;100.00;99686.44;5058131;28;20103;-76
2024/02/29 05:48:00;;;;;;;3.17;1.25;;;;;;;3.23;100.00;99682.50;5074623;28;20039;-75
2024/02/29 05:50:26;;;;;;;3.35;0.80;;;;;;;3.13;100.00;99673.78;5041467;28;20031;-75
2024/02/29 05:52:52;;;;;;;0.50;0.50;;;;;;;3.07;100.00;99678.72;5041700;28;20363;-75
2024/02/29 05:55:18;;;;;;;1.42;0.80;;;;;;;2.97;100.00;99677.97;5041537;28;20047;-75
2024/02/29 05:57:43;;;;;;;0.40;0.40;;;;;;;2.84;100.00;99682.84;5058114;28;20449;-75
2024/02/29 06:00:10;;;;;;;6.78;0.98;;;;;;;2.69;100.00;99679.03;5041473;28;20036;-75
2024/02/29 06:02:36;;;;;;;3.03;0.73;;;;;;;2.54;100.00;99681.38;5057899;28;20398;-75
2024/02/29 06:05:02;;;;;;;6.07;1.17;;;;;;;2.39;100.00;99681.91;5041400;28;20127;-75
2024/02/29 06:07:28;;;;;;;2.67;0.93;;;;;;;2.32;100.00;99677.34;5041271;28;20028;-76
2024/02/29 06:09:54;;;;;;;3.58;0.98;;;;;;;2.31;100.00;99676.53;5041082;28;20068;-75
2024/02/29 06:12:20;;;;;;;2.83;0.68;;;;;;;2.38;100.00;99677.59;5057342;28;20048;-75
2024/02/29 06:14:47;;;;;;;1.10;0.95;;;;;;;2.54;100.00;99690.19;5041194;28;20575;-75
2024/02/29 06:17:13;;;;;;;3.10;1.00;;;;;;;2.75;100.00;99697.00;5041211;28;20131;-75
2024/02/29 06:19:39;;;;;;;0.95;0.68;;;;;;;2.93;100.00;99692.53;5074078;28;20036;-75
2024/02/29 06:22:08;;;;;;;1.58;0.98;;;;;;;3.01;100.00;99675.84;5058191;28;20028;-75
2024/02/29 06:24:34;;;;;;;0.93;0.60;;;;;;;2.90;100.00;99676.09;5057643;28;20032;-75
2024/02/29 06:27:00;;;;;;;1.05;0.95;;;;;;;2.69;100.00;99674.56;5074151;28;20032;-75
2024/02/29 06:29:26;;;;;;;1.70;1.10;;;;;;;2.51;100.00;99674.56;5041662;28;20074;-75
2024/02/29 06:31:51;;;;;;;0.85;0.70;;;;;;;2.31;100.00;99668.56;5057044;28;20443;-75
2024/02/29 06:34:18;;;;;;;2.58;0.90;;;;;;;2.13;100.00;99671.16;5039977;28;20036;-75
2024/02/29 06:36:45;;;;;;;0.88;0.88;;;;;;;1.97;100.00;99676.28;5057103;28;20488;-75
2024/02/29 06:39:10;;;;;;;13.30;0.90;;;;;;;1.93;100.00;99674.91;5073606;28;20107;-75
2024/02/29 06:41:38;;;;;;;1.10;1.10;;;;;;;1.85;100.00;99672.16;5040718;28;20112;-75
2024/02/29 06:44:06;;;;;;;2.72;1.05;;;;;;;1.72;100.00;99669.81;5057409;28;20474;-75
2024/02/29 06:46:32;;;;;;;2.55;0.77;;;;;;;1.67;100.00;99666.81;5057543;28;20028;-75
2024/02/29 06:49:01;;;;;;;0.80;0.80;;;;;;;1.66;100.00;99665.94;5056979;28;20119;-75
2024/02/29 06:51:30;;;;;;;4.47;0.80;;;;;;;1.70;100.00;99667.34;5040155;28;20020;-75
2024/02/29 06:53:56;;;;;;;3.72;1.20;;;;;;;1.76;100.00;99666.75;5040788;28;20035;-75
2024/02/29 06:56:22;;;;;;;2.05;1.00;;;;;;;1.84;100.00;99662.53;5057047;28;20040;-75
2024/02/29 06:58:48;;;;;;;0.60;0.60;;;;;;;1.86;100.00;99657.94;5040240;28;20032;-75
2024/02/29 07:01:15;;;;;;;0.65;0.65;;;;;;;1.90;100.00;99669.91;5040172;28;20047;-75
2024/02/29 07:03:40;;;;;;;0.55;0.55;;;;;;;1.99;100.00;99674.34;5040200;28;20051;-75
2024/02/29 07:06:06;;;;;;;0.40;0.40;;;;;;;2.15;100.00;99687.78;5056692;28;20443;-75
2024/02/29 07:08:34;;;;;;;1.05;0.80;;;;;;;2.39;100.00;99700.47;5040053;28;20190;-75
2024/02/29 07:11:00;;;;;;;1.90;0.80;;;;;;;2.57;100.00;99712.94;5039796;28;20028;-75
2024/02/29 07:13:26;;;;;;;0.70;0.70;;;;;;;2.59;100.00;99703.00;5039837;28;20189;-75
2024/02/29 07:15:52;;;;;;;0.45;0.45;;;;;;;2.57;100.00;99684.59;5039821;28;20469;-75
2024/02/29 07:18:18;;;;;;;0.50;0.50;;;;;;;2.50;100.00;99675.56;5056348;28;20039;-75
2024/02/29 07:20:43;;;;;;;0.88;0.85;;;;;;;2.43;100.00;99674.47;5039379;28;20051;-75
2024/02/29 07:23:12;;;;;;;1.40;0.70;;;;;;;2.37;100.00;99675.09;5039816;28;20063;-75
2024/02/29 07:25:38;;;;;;;0.50;0.50;;;;;;;2.26;100.00;99673.47;5039606;28;20028;-75
2024/02/29 07:28:06;;;;;;;0.40;0.40;;;;;;;2.14;100.00;99669.34;5039346;28;20042;-75
2024/02/29 07:30:31;;;;;;;1.55;0.65;;;;;;;2.12;100.00;99682.78;5039506;28;20025;-75
2024/02/29 07:33:04;;;;;;;0.50;0.50;;;;;;;2.12;100.00;99672.16;5039632;28;20135;-75
2024/02/29 07:35:47;;;;;;;0.60;0.60;;;;;;;2.05;100.00;99678.22;5057690;28;20028;-75
2024/02/29 07:38:12;;;;;;;0.75;0.75;;;;;;;1.95;100.00;99676.41;5055679;28;20099;-74
2024/02/29 07:40:38;;;;;;;2.50;0.65;;;;;;;1.89;100.00;99673.53;5055647;28;20032;-75
2024/02/29 07:43:05;;;;;;;0.60;0.60;;;;;;;1.84;100.00;99678.44;5055524;28;20028;-74
2024/02/29 07:45:30;;;;;;;0.40;0.40;;;;;;;1.85;100.00;99680.94;5039848;28;20419;-75
2024/02/29 07:47:56;;;;;;;0.85;0.68;;;;;;;1.87;100.00;99680.78;5039562;28;20119;-75
2024/02/29 07:50:22;;;;;;;1.58;0.68;;;;;;;1.82;100.00;99669.78;5055513;28;20020;-74
2024/02/29 07:52:47;;;;;;;0.57;0.57;;;;;;;1.98;100.00;99684.09;5056048;28;20024;-75
2024/02/29 07:55:14;;;;;;;0.50;0.50;;;;;;;2.36;100.00;99692.00;5039362;28;20111;-75
2024/02/29 07:57:41;;;;;;;0.70;0.70;;;;;;;2.81;100.00;99699.91;5072448;28;20048;-75
2024/02/29 08:00:07;;;;;;;0.50;0.50;;;;;;;3.33;100.00;99715.09;5055690;28;20032;-75
2024/02/29 08:02:33;;;;;;;0.65;0.65;;;;;;;3.31;100.00;99725.06;5039781;28;20028;-75
2024/02/29 08:04:59;;;;;;;1.00;0.70;;;;;;;3.13;100.00;99703.00;5055717;28;20371;-74
2024/02/29 08:07:25;;;;;;;0.55;0.55;;;;;;;3.06;100.00;99686.84;5055627;28;20028;-75
2024/02/29 08:09:51;;;;;;;1.45;0.85;;;;;;;3.04;100.00;99679.03;5055030;28;20352;-75
2024/02/29 08:12:17;;;;;;;0.43;0.43;;;;;;;3.03;100.00;99672.03;5039084;28;20046;-75
2024/02/29 08:14:44;;;;;;;3.72;0.50;;;;;;;2.95;100.00;99666.66;5055734;28;20433;-75
2024/02/29 08:17:10;;;;;;;0.60;0.60;;;;;;;2.82;100.00;99666.22;5072262;28;20028;-75
2024/02/29 08:19:36;;;;;;;0.70;0.70;;;;;;;2.78;100.00;99672.81;5055153;28;20024;-75
2024/02/29 08:22:02;;;;;;;0.70;0.55;;;;;;;2.77;100.00;99668.50;5038698;28;20036;-75
2024/02/29 08:24:28;;;;;;;0.60;0.60;;;;;;;2.83;100.00;99668.75;5038944;28;20051;-75
2024/02/29 08:26:53;;;;;;;0.50;0.50;;;;;;;2.92;100.00;99672.28;5039093;28;20028;-75
2024/02/29 08:29:19;;;;;;;0.50;0.50;;;;;;;3.01;100.00;99667.88;5038953;28;20032;-75
2024/02/29 08:31:45;;;;;;;0.70;0.70;;;;;;;3.37;100.00;99659.84;5055998;28;20063;-75
2024/02/29 08:34:10;;;;;;;0.65;0.65;;;;;;;3.61;100.00;99664.47;5039011;28;20036;-75
2024/02/29 08:36:36;;;;;;;0.93;0.85;;;;;;;4.01;100.00;99657.66;5072941;28;20459;-75
2024/02/29 08:39:03;;;;;;;1.23;0.88;;;;;;;4.51;100.00;99654.97;5072938;28;20415;-75
2024/02/29 08:41:28;;;;;;;0.70;0.70;;;;;;;5.01;100.00;99656.69;5022218;28;20069;-75
2024/02/29 08:43:54;;;;;;;4.82;0.98;;;;;;;5.20;100.00;99662.69;5038939;28;20052;-75
2024/02/29 08:46:20;;;;;;;1.15;0.82;;;;;;;5.65;100.00;99654.09;5039397;28;20516;-75
2024/02/29 08:48:45;;;;;;;8.57;1.13;;;;;;;5.93;100.00;99664.34;5055423;28;20435;-75
2024/02/29 08:51:11;;;;;;;0.98;0.88;;;;;;;6.14;100.00;99656.63;5038479;28;20130;-75
2024/02/29 08:53:37;;;;;;;1.40;1.23;;;;;;;6.91;100.00;99654.97;5055156;28;20032;-75
2024/02/29 08:56:03;;;;;;;0.77;0.77;;;;;;;7.34;100.00;99668.63;5038728;28;20063;-75
2024/02/29 08:58:29;;;;;;;1.85;0.95;;;;;;;7.83;100.00;99662.75;5041402;28;20039;-75
2024/02/29 09:00:55;;;;;;;0.60;0.60;;;;;;;8.22;100.00;99667.81;5075441;28;20024;-75
2024/02/29 09:03:21;;;;;;;1.17;0.95;;;;;;;7.19;100.00;99665.91;5059034;28;20412;-75
2024/02/29 09:05:46;;;;;;;0.52;0.52;;;;;;;7.15;100.00;99665.47;5075504;28;20043;-75
2024/02/29 09:08:12;;;;;;;3.33;1.55;;;;;;;6.75;100.00;99675.44;5042273;28;20122;-75
2024/02/29 09:10:38;;;;;;;0.60;0.60;;;;;;;7.75;100.00;99681.59;5058612;28;20085;-76
2024/02/29 09:13:04;;;;;;;0.73;0.68;;;;;;;8.51;100.00;99669.63;5042286;28;20039;-75
2024/02/29 09:15:32;;;;;;;0.80;0.80;;;;;;;8.98;100.00;99680.81;5042134;28;20035;-76
2024/02/29 09:17:58;;;;;;;1.48;0.70;;;;;;;8.72;100.00;99682.22;5041843;28;20331;-75
2024/02/29 09:20:24;;;;;;;1.35;1.13;;;;;;;9.20;100.00;99685.16;5074905;28;20029;-76
2024/02/29 09:22:49;;;;;;;2.88;0.90;;;;;;;9.61;100.00;99687.13;5042109;28;20028;-76
2024/02/29 09:25:19;;;;;;;1.45;0.90;;;;;;;9.87;100.00;99675.75;5058260;28;20039;-75
2024/02/29 09:27:44;;;;;;;0.60;0.60;;;;;;;10.03;100.00;99692.53;5075266;28;20026;-75
2024/02/29 09:30:12;;;;;;;3.72;0.98;;;;;;;10.26;100.00;99685.00;5041888;28;20037;-76
2024/02/29 09:32:37;;;;;;;1.17;0.70;;;;;;;10.47;100.00;99686.78;5075120;28;20039;-75
2024/02/29 09:35:03;;;;;;;1.10;0.85;;;;;;;10.13;100.00;99676.88;5058154;28;20028;-76
2024/02/29 09:37:30;;;;;;;1.48;0.90;;;;;;;9.97;100.00;99672.66;5058816;28;20059;-75
2024/02/29 09:39:56;;;;;;;3.00;0.90;;;;;;;9.54;100.00;99680.88;5058160;28;20094;-75
2024/02/29 09:42:21;;;;;;;2.20;0.63;;;;;;;8.58;100.00;99675.06;5075230;28;20024;-76
2024/02/29 09:44:47;;;;;;;3.97;0.80;;;;;;;7.84;100.00;99680.50;5058465;28;20060;-75
2024/02/29 09:47:13;;;;;;;0.63;0.60;;;;;;;7.57;100.00;99679.25;5057856;28;20020;-76
2024/02/29 09:49:40;;;;;;;1.38;0.70;;;;;;;7.19;100.00;99692.66;5058149;28;20032;-75
2024/02/29 09:52:06;;;;;;;0.50;0.50;;;;;;;6.97;100.00;99687.13;5041675;28;20436;-76
2024/02/29 09:54:33;;;;;;;1.63;0.65;;;;;;;6.92;100.00;99694.88;5025054;28;20493;-75
2024/02/29 09:56:59;;;;;;;1.92;0.80;;;;;;;7.05;100.00;99687.06;5041490;28;20032;-75
2024/02/29 09:59:26;;;;;;;2.05;0.70;;;;;;;7.55;100.00;99679.44;5057596;28;20032;-75
2024/02/29 10:01:52;;;;;;;0.80;0.80;;;;;;;7.84;100.00;99681.31;5024985;28;20029;-76
2024/02/29 10:04:18;;;;;;;0.85;0.82;;;;;;;7.65;100.00;99677.34;5074188;28;20051;-75
2024/02/29 10:06:44;;;;;;;0.60;0.60;;;;;;;6.81;100.00;99679.25;5057846;28;20493;-75
2024/02/29 10:09:10;;;;;;;0.55;0.50;;;;;;;5.68;100.00;99685.75;5056499;28;20024;-75
2024/02/29 10:11:42;;;;;;;0.40;0.40;;;;;;;4.96;100.00;99676.84;5040861;28;20028;-75
2024/02/29 10:14:29;;;;;;;0.73;0.73;;;;;;;4.58;100.00;99682.63;5057897;28;20103;-75
2024/02/29 10:16:56;;;;;;;0.40;0.40;;;;;;;4.44;100.00;99677.09;5074199;28;20108;-75
2024/02/29 10:19:23;;;;;;;1.02;0.75;;;;;;;4.36;100.00;99680.56;5073630;28;20029;-75
2024/02/29 10:21:50;;;;;;;5.68;1.52;;;;;;;4.40;100.00;99684.56;5024394;28;20078;-75
2024/02/29 10:24:18;;;;;;;0.55;0.55;;;;;;;4.77;100.00;99680.66;5040759;28;20035;-75
2024/02/29 10:26:45;;;;;;;0.50;0.50;;;;;;;5.02;100.00;99668.16;5024160;28;20037;-75
2024/02/29 10:29:16;;;;;;;5.43;0.85;;;;;;;4.87;100.00;99675.16;5057586;28;20094;-75
2024/02/29 10:31:42;;;;;;;0.50;0.50;;;;;;;4.75;100.00;99664.84;5073597;28;20020;-75
2024/02/29 10:34:16;;;;;;;0.88;0.85;;;;;;;7.02;100.00;99654.53;5057139;28;20097;-75
2024/02/29 10:36:42;;;;;;;2.05;0.88;;;;;;;8.32;100.00;99651.44;5057433;28;20473;-76
2024/02/29 10:39:10;;;;;;;1.75;0.90;;;;;;;9.16;100.00;99642.84;5040626;28;20041;-76
2024/02/29 10:41:40;;;;;;;5.97;1.60;;;;;;;9.76;100.00;99637.84;5073407;28;20036;-76
2024/02/29 10:44:08;;;;;;;4.95;1.23;;;;;;;10.12;100.00;99630.41;5057562;28;20044;-76
2024/02/29 10:46:36;;;;;;;5.68;1.08;;;;;;;10.45;100.00;99635.09;5073858;28;20040;-76
2024/02/29 10:49:17;;;;;;;0.65;0.65;;;;;;;10.72;100.00;99638.69;5024009;28;20455;-76
2024/02/29 10:51:53;;;;;;;3.65;0.98;;;;;;;10.79;100.00;99638.66;5073611;28;20439;-76
2024/02/29 10:54:20;;;;;;;1.42;0.70;;;;;;;9.78;100.00;99627.75;5041985;28;20025;-75
2024/02/29 10:56:48;;;;;;;1.75;0.90;;;;;;;8.65;100.00;99627.72;5040200;28;20093;-76
2024/02/29 10:59:18;;;;;;;2.08;0.80;;;;;;;7.80;100.00;99631.03;5056450;28;20367;-75
2024/02/29 11:01:45;;;;;;;0.90;0.80;;;;;;;7.39;100.00;99634.97;5039926;28;20086;-75
2024/02/29 11:04:11;;;;;;;1.23;0.80;;;;;;;7.19;100.00;99623.97;5056395;28;20031;-75
2024/02/29 11:06:40;;;;;;;4.22;1.02;;;;;;;7.09;100.00;99633.25;5056711;28;20067;-75
2024/02/29 11:09:08;;;;;;;4.78;0.93;;;;;;;7.01;100.00;99620.78;5073896;28;20098;-75
2024/02/29 11:11:34;;;;;;;1.77;0.82;;;;;;;7.08;100.00;99624.41;5039808;28;20086;-75
2024/02/29 11:14:09;;;;;;;0.77;0.77;;;;;;;7.20;100.00;99620.28;5072787;28;20024;-75
2024/02/29 11:16:40;;;;;;;0.70;0.70;;;;;;;8.45;100.00;99640.91;5056546;28;20028;-75
2024/02/29 11:19:06;;;;;;;5.93;1.30;;;;;;;7.90;100.00;99642.28;5057199;28;20043;-75
2024/02/29 11:21:33;;;;;;;4.85;0.73;;;;;;;7.18;100.00;99650.91;5056201;28;20051;-75
2024/02/29 11:24:06;;;;;;;1.20;0.70;;;;;;;6.69;100.00;99641.41;5056286;28;20032;-75
2024/02/29 11:26:33;;;;;;;0.73;0.73;;;;;;;6.21;100.00;99639.91;5056498;28;20036;-75
2024/02/29 11:29:09;;;;;;;0.65;0.65;;;;;;;5.74;100.00;99622.88;5039551;28;20056;-75
2024/02/29 11:31:44;;;;;;;3.10;0.93;;;;;;;5.70;100.00;99627.75;5056118;28;20356;-75